Preview of NWS' New Version of Forecast
This preview is not operational and should not be used for support decisions.

Terminal Aerodrome Forecast (TAF)

Issued by National Weather Service (NWS)

                            
000
FTUS46 KMFR 171720
TAFRBG
TAF
KRBG 171720Z 1718/1818 VRB03KT P6SM SCT050
     FM172200 36007KT P6SM OVC040
     FM180300 VRB03KT P6SM VCSH OVC025=